Latest Weather Observations for Sheffield

IDT60801

Issued at 4:31 pm EDT Thursday 18 December 2014 (issued every 30 minutes, with the page automatically refreshed every 10 minutes)

About weather observations | Map of weather stations | Latest weather observations for TAS | Other Formats
Station Details ID: 091291 Name: SHEFFIELD SCHOOL FARM Lat: -41.39 Lon: 146.32 Height: 294.2 m
Data from the previous 72 hours. | See also: Recent months at Sheffield
Date/Time
EDT
Temp
°C
App
Temp
°C
Dew
Point
Rel
Hum
%
Delta-T
°C
Wind Press
QNH
hPa
Press
MSL
hPa
Rain
since 9 am
mm
Dir
 
Spd
km/h
Gust
km/h
Spd
kts
Gust
kts
18/04:30pm 11.6 8.9 8.8 83 1.4 NW 13 17 7 9 1003.1 1002.7 6.4
18/04:00pm 11.6 8.2 9.0 84 1.3 WNW 17 22 9 12 1003.3 1002.9 6.0
18/03:30pm 12.2 9.5 10.3 88 1.0 NW 15 19 8 10 1003.1 1002.7 5.4
18/03:00pm 12.0 8.4 9.9 87 1.1 NW 19 32 10 17 1003.0 1002.6 4.4
18/02:30pm 12.8 9.4 9.3 79 1.8 NW 17 22 9 12 1002.8 1002.4 3.2
18/02:00pm 13.4 9.0 9.1 75 2.2 NW 22 28 12 15 1003.1 1002.7 3.0
18/01:30pm 13.8 9.3 8.6 71 2.7 NW 22 28 12 15 1003.1 1002.7 3.0
18/01:00pm 13.7 9.1 8.3 70 2.7 NNW 22 35 12 19 1003.3 1002.9 3.0
18/12:30pm 13.7 9.1 8.3 70 2.7 N 22 32 12 17 1003.4 1003.0 3.0
18/12:00pm 14.1 10.5 9.9 76 2.2 N 19 24 10 13 1003.7 1003.3 3.0
18/11:30am 13.6 11.5 11.0 84 1.4 NNW 13 19 7 10 1003.9 1003.5 3.0
18/11:00am 12.6 10.8 10.7 88 1.0 NW 11 17 6 9 1004.2 1003.9 3.0
18/10:30am 11.6 9.2 9.9 89 0.9 NW 13 22 7 12 1004.4 1004.1 2.8
18/10:00am 12.2 11.4 9.6 84 1.3 NNW 4 6 2 3 1004.5 1004.2 0.2
18/09:30am 12.0 11.1 7.9 76 2.0 WNW 2 6 1 3 1005.0 1004.6 0.0
18/09:00am 11.8 10.5 7.7 76 2.0 NNW 4 7 2 4 1005.2 1004.8 0.0
18/08:30am 10.9 9.9 7.2 78 1.8 NW 2 4 1 2 1005.4 1005.0 0.0
18/08:00am 10.4 9.6 6.7 78 1.8 CALM 0 0 0 0 1005.2 1004.8 0.0
18/07:30am 9.7 8.6 6.8 82 1.4 W 2 4 1 2 1005.3 1004.9 0.0
18/07:00am 8.7 7.8 6.0 83 1.3 CALM 0 0 0 0 1005.1 1004.7 0.0
18/06:30am 8.2 7.3 6.0 86 1.0 CALM 0 0 0 0 1005.1 1004.7 0.0
18/06:00am 7.9 6.9 5.4 84 1.1 CALM 0 0 0 0 1005.2 1004.8 0.0
18/05:30am 7.3 5.8 5.0 85 1.0 N 2 4 1 2 1005.4 1005.0 0.0
18/05:00am 7.0 5.1 4.8 86 1.0 N 4 6 2 3 1005.5 1005.1 0.0
18/04:30am 6.8 4.8 4.5 85 1.0 NNW 4 4 2 2 1005.4 1005.0 0.0
18/04:00am 6.0 3.9 3.8 86 1.0 NNW 4 4 2 2 1005.5 1005.1 0.0
18/03:30am 6.3 4.6 4.0 85 1.0 NW 2 4 1 2 1005.5 1005.1 0.0
18/03:00am 6.3 4.6 3.8 84 1.1 NW 2 6 1 3 1005.5 1005.1 0.0
18/02:30am 6.0 3.8 3.5 84 1.1 WNW 4 6 2 3 1005.6 1005.2 0.0
18/02:00am 6.9 4.8 3.9 81 1.3 NW 4 4 2 2 1005.5 1005.1 0.0
18/01:30am 7.4 5.6 3.6 77 1.6 W 2 4 1 2 1005.8 1005.4 0.0
18/01:00am 7.6 5.1 3.5 75 1.8 W 6 7 3 4 1005.9 1005.5 0.0
18/12:30am 7.7 4.9 3.2 73 1.9 W 7 11 4 6 1006.1 1005.7 0.0
18/12:00am 8.0 4.8 3.3 72 2.0 W 9 11 5 6 1006.3 1005.9 0.0
 
Date/Time
EDT
Temp
°C
App
Temp
°C
Dew
Point
Rel
Hum
%
Delta-T
°C
Wind Press
QNH
hPa
Press
MSL
hPa
Rain
since 9 am
mm
Dir
 
Spd
km/h
Gust
km/h
Spd
kts
Gust
kts
17/11:30pm 8.8 6.0 3.2 68 2.4 WSW 7 9 4 5 1006.5 1006.1 0.0
17/11:00pm 8.7 6.0 2.7 66 2.6 W 6 7 3 4 1006.8 1006.4 0.0
17/10:30pm 9.0 7.1 3.0 66 2.6 WNW 2 6 1 3 1007.1 1006.8 0.0
17/10:00pm 9.6 7.0 3.4 65 2.7 NW 6 9 3 5 1007.0 1006.6 0.0
17/09:30pm 10.4 7.8 3.2 61 3.2 WNW 6 9 3 5 1006.9 1006.5 0.0
17/09:00pm 11.3 8.5 2.9 56 3.7 W 7 13 4 7 1006.8 1006.4 0.0
17/08:30pm 12.5 8.9 2.7 51 4.4 WNW 11 19 6 10 1006.6 1006.2 0.0
17/08:00pm 13.6 9.1 1.9 45 5.2 W 15 22 8 12 1006.4 1006.0 0.0
17/07:30pm 14.6 9.8 2.5 44 5.5 W 17 24 9 13 1006.1 1005.7 0.0
17/07:00pm 14.8 11.0 3.9 48 5.1 SW 13 20 7 11 1005.8 1005.4 0.0
17/06:30pm 15.5 10.7 4.8 49 5.1 WSW 19 30 10 16 1005.5 1005.1 0.0
17/06:00pm 15.1 9.6 4.2 48 5.1 WSW 22 30 12 16 1005.2 1004.8 0.0
17/05:30pm 16.1 12.1 2.9 41 6.1 WSW 13 19 7 10 1005.1 1004.7 0.0
17/05:00pm 15.8 11.3 2.2 40 6.2 WSW 15 28 8 15 1005.2 1004.8 0.0
17/04:30pm 15.7 11.4 3.5 44 5.7 WSW 15 26 8 14 1005.2 1004.8 0.0
17/04:00pm 17.5 12.5 3.4 39 6.7 SW 19 32 10 17 1005.3 1004.9 0.0
17/03:30pm 15.5 10.3 2.7 42 5.8 W 19 26 10 14 1005.3 1004.9 0.0
17/03:00pm 16.4 11.2 3.8 43 6.0 W 20 37 11 20 1005.2 1004.8 0.0
17/02:30pm 16.4 11.8 1.7 37 6.6 WSW 15 20 8 11 1005.0 1004.6 0.0
17/02:00pm 15.8 10.2 3.3 43 5.8 WSW 22 30 12 16 1005.2 1004.8 0.0
17/01:30pm 17.1 12.3 4.4 43 6.1 W 19 28 10 15 1005.2 1004.8 0.0
17/01:00pm 14.9 11.7 4.9 51 4.8 WSW 11 17 6 9 1005.4 1005.0 0.0
17/12:30pm 12.8 8.3 4.0 55 4.0 WSW 17 28 9 15 1005.5 1005.1 0.0
17/12:00pm 14.9 10.1 4.6 50 4.9 W 19 30 10 16 1005.2 1004.8 0.0
17/11:30am 13.1 7.2 4.0 54 4.2 W 24 44 13 24 1005.0 1004.6 0.0
17/11:28am 13.7 8.2 4.0 52 4.5 W 22 44 12 24 1004.9 1004.5 0.0
17/11:00am 12.8 9.0 5.7 62 3.4 W 15 26 8 14 1004.9 1004.5 0.0
17/10:30am 11.2 5.5 5.1 66 2.8 WSW 24 39 13 21 1004.7 1004.4 0.0
17/10:00am 11.8 6.9 4.3 60 3.5 WSW 19 28 10 15 1004.3 1004.0 0.0
17/09:30am 10.4 5.3 3.9 64 2.9 WSW 20 30 11 16 1004.3 1004.0 0.0
17/09:00am 11.4 6.2 5.5 67 2.8 WSW 22 37 12 20 1003.9 1003.5 2.6
17/08:48am 10.3 3.6 3.6 63 3.0 WSW 28 44 15 24 1003.6 1003.2 2.6
17/08:30am 11.5 7.5 4.7 63 3.1 W 15 22 8 12 1003.3 1002.9 2.6
17/08:00am 10.4 7.5 4.5 67 2.7 WNW 9 17 5 9 1003.0 1002.6 2.6
17/07:30am 8.7 5.8 4.5 75 1.9 W 9 15 5 8 1002.7 1002.3 2.6
17/07:00am 9.1 5.8 4.7 74 2.0 WNW 11 17 6 9 1002.1 1001.7 2.6
17/06:30am 7.7 3.5 3.6 75 1.8 WSW 15 19 8 10 1001.4 1001.0 2.6
17/06:00am 7.0 2.3 3.1 76 1.7 WSW 17 24 9 13 1000.7 1000.3 2.6
17/05:30am 7.2 2.5 3.4 77 1.6 WSW 17 24 9 13 1000.2 999.8 2.6
17/05:00am 6.7 2.8 3.5 80 1.4 W 13 20 7 11 999.8 999.4 2.6
17/04:30am 6.9 1.6 3.2 77 1.6 WSW 20 28 11 15 999.2 998.8 2.6
17/04:00am 7.1 1.5 3.2 76 1.7 WSW 22 33 12 18 998.9 998.5 2.6
17/03:30am 7.3 1.7 3.7 78 1.6 W 22 30 12 16 998.3 997.8 2.6
17/03:00am 8.1 2.2 3.8 74 1.9 W 24 33 13 18 998.1 997.6 2.6
17/02:30am 8.2 2.8 4.4 77 1.7 W 22 32 12 17 997.2 996.8 2.6
17/02:00am 8.2 1.3 4.4 77 1.7 WSW 30 52 16 28 996.8 996.4 2.6
17/01:52am 8.6 2.1 4.8 77 1.7 W 28 52 15 28 996.9 996.5 2.4
17/01:30am 8.3 3.0 4.9 79 1.5 W 22 35 12 19 996.4 996.0 2.4
17/01:00am 9.2 4.0 5.4 77 1.8 W 22 35 12 19 996.4 996.0 2.4
17/12:30am 9.3 4.2 5.9 79 1.6 W 22 32 12 17 996.0 995.6 2.4
17/12:00am 9.4 4.7 6.1 80 1.6 WNW 20 30 11 16 995.4 995.0 2.4
 
Date/Time
EDT
Temp
°C
App
Temp
°C
Dew
Point
Rel
Hum
%
Delta-T
°C
Wind Press
QNH
hPa
Press
MSL
hPa
Rain
since 9 am
mm
Dir
 
Spd
km/h
Gust
km/h
Spd
kts
Gust
kts
16/11:30pm 9.2 4.8 6.5 83 1.3 W 19 30 10 16 995.4 995.0 2.2
16/11:00pm 8.6 4.4 5.9 83 1.3 WNW 17 22 9 12 994.5 994.0 2.0
16/10:30pm 9.1 4.5 5.8 80 1.5 WNW 19 30 10 16 994.3 993.8 2.0
16/10:00pm 9.4 5.9 5.6 77 1.8 W 13 20 7 11 993.2 992.8 1.6
16/09:30pm 10.2 4.2 5.2 71 2.3 WNW 26 39 14 21 992.7 992.3 1.6
16/09:00pm 10.9 5.9 6.3 73 2.2 WNW 22 32 12 17 992.1 991.6 1.6
16/08:30pm 11.5 6.3 7.2 75 2.1 WNW 24 35 13 19 991.4 990.9 1.6
16/08:00pm 11.8 6.4 8.1 78 1.9 NW 26 39 14 21 990.9 990.4 1.6
16/07:30pm 12.1 8.0 8.6 79 1.8 NW 20 30 11 16 990.3 989.9 1.6
16/07:00pm 12.5 8.1 9.0 79 1.8 NW 22 30 12 16 990.4 990.0 1.6
16/06:30pm 11.9 8.0 8.7 81 1.6 NW 19 24 10 13 990.0 989.6 1.6
16/06:00pm 11.3 5.6 8.5 83 1.4 W 28 54 15 29 989.4 988.9 1.6
16/05:51pm 11.5 4.6 8.9 84 1.3 WNW 35 54 19 29 990.3 989.9 1.2
16/05:43pm 12.0 1.9 8.8 81 1.6 WNW 52 83 28 45 990.3 989.9 0.6
16/05:39pm 12.6 3.4 8.1 74 2.3 WNW 46 83 25 45 989.6 989.2 0.2
16/05:35pm 13.9 6.2 8.5 70 2.8 WNW 39 72 21 39 989.4 988.9 0.0
16/05:30pm 14.9 8.4 8.8 67 3.1 WNW 33 54 18 29 989.1 988.6 0.0
16/05:00pm 17.7 10.9 7.7 52 5.2 NW 33 54 18 29 988.7 988.2 0.0
16/04:37pm 18.6 10.9 8.6 52 5.3 NW 39 57 21 31 988.6 988.1 0.0
16/04:30pm 18.6 10.4 8.3 51 5.4 NW 41 57 22 31 988.6 988.1 0.0
16/04:24pm 19.0 12.2 9.2 53 5.2 NW 35 57 19 31 988.6 988.1 0.0
16/04:00pm 18.4 13.9 11.5 64 3.9 NW 26 46 14 25 988.3 987.8 0.0
16/03:30pm 19.0 13.2 12.7 67 3.6 NNW 35 44 19 24 988.5 988.0 0.0
16/03:00pm 20.7 16.1 13.6 64 4.2 NNW 30 41 16 22 988.8 988.3 0.0
16/02:30pm 22.4 20.6 14.5 61 4.7 N 17 26 9 14 988.4 987.9 0.0
16/02:00pm 21.6 19.6 14.0 62 4.5 NW 17 37 9 20 989.8 989.4 0.0
16/01:30pm 20.0 18.5 15.4 75 2.8 NW 17 28 9 15 990.2 989.8 0.0
16/01:00pm 17.4 16.6 15.0 86 1.4 NNW 13 17 7 9 990.6 990.1 0.0
16/12:30pm 17.3 16.1 15.1 87 1.3 N 15 24 8 13 991.1 990.6 0.0
16/12:00pm 17.1 14.8 14.7 86 1.4 N 20 33 11 18 991.5 991.0 0.0
16/11:30am 18.4 16.9 14.1 76 2.5 NNE 15 20 8 11 991.8 991.3 0.0
16/11:00am 18.4 17.8 13.5 73 2.8 NNE 9 15 5 8 992.3 991.8 0.0
16/10:30am 18.0 17.7 12.7 71 3.0 SSE 6 7 3 4 992.9 992.5 0.0
16/10:00am 18.0 17.5 12.0 68 3.4 SSE 6 7 3 4 993.7 993.3 0.0
16/09:30am 18.1 16.6 11.9 67 3.5 SE 11 15 6 8 994.5 994.0 0.0
16/09:00am 16.7 15.9 11.6 72 2.8 ESE 7 9 4 5 995.2 994.7 0.0
16/08:30am 15.6 15.4 11.8 78 2.1 SE 4 9 2 5 995.4 995.0 0.0
16/08:00am 15.2 13.9 11.2 77 2.2 ESE 9 11 5 6 995.4 995.0 0.0
16/07:30am 13.1 12.2 10.8 86 1.2 E 6 9 3 5 995.5 995.1 0.0
16/07:00am 12.0 10.7 10.1 88 1.0 ESE 7 9 4 5 996.0 995.6 0.0
16/06:30am 11.3 9.6 9.7 90 0.8 SE 9 13 5 7 996.5 996.1 0.0
16/06:00am 10.1 8.1 8.5 90 0.8 ESE 9 9 5 5 997.3 996.9 0.0
16/05:30am 10.4 8.8 8.8 90 0.8 SE 7 9 4 5 997.8 997.3 0.0
16/05:00am 10.2 9.3 9.1 93 0.6 E 4 6 2 3 998.4 998.0 0.0
16/04:30am 9.5 7.9 8.6 94 0.4 SE 7 9 4 5 998.7 998.3 0.0
16/04:00am 9.6 8.0 8.8 95 0.4 SE 7 9 4 5 999.4 999.0 0.0
16/03:30am 9.4 8.3 8.6 95 0.4 SSE 4 7 2 4 1000.3 999.9 0.0
16/03:00am 9.6 9.3 8.8 95 0.4 CALM 0 4 0 2 1000.9 1000.5 0.0
16/02:30am 9.8 9.6 9.2 96 0.3 CALM 0 0 0 0 1001.1 1000.7 0.0
16/02:00am 10.0 9.9 9.4 96 0.3 CALM 0 0 0 0 1001.1 1000.7 0.0
16/01:30am 9.3 8.6 8.7 96 0.3 SSE 2 6 1 3 1001.3 1000.9 0.0
16/01:00am 9.1 7.4 8.3 95 0.4 SE 7 7 4 4 1001.7 1001.3 0.0
16/12:30am 9.1 7.5 8.2 94 0.4 SE 6 7 3 4 1002.4 1002.0 0.0
16/12:00am 10.0 9.1 9.1 94 0.5 S 4 6 2 3 1003.1 1002.7 0.0
 
Date/Time
EDT
Temp
°C
App
Temp
°C
Dew
Point
Rel
Hum
%
Delta-T
°C
Wind Press
QNH
hPa
Press
MSL
hPa
Rain
since 9 am
mm
Dir
 
Spd
km/h
Gust
km/h
Spd
kts
Gust
kts
15/11:30pm 10.4 9.5 9.2 92 0.6 SE 4 4 2 2 1003.7 1003.3 0.0
15/11:00pm 11.0 10.2 9.8 92 0.6 SE 4 6 2 3 1004.2 1003.9 0.0
15/10:30pm 11.3 10.5 9.7 90 0.8 SE 4 4 2 2 1004.6 1004.3 0.0
15/10:00pm 11.9 11.2 10.0 88 1.0 NNW 4 4 2 2 1005.4 1005.0 0.0
15/09:30pm 12.2 11.1 9.9 86 1.2 N 6 9 3 5 1005.5 1005.1 0.0
15/09:00pm 12.4 10.7 10.0 85 1.3 N 9 11 5 6 1005.5 1005.1 0.0
15/08:30pm 13.1 11.9 9.7 80 1.8 N 6 9 3 5 1005.4 1005.0 0.0
15/08:00pm 13.9 12.2 9.7 76 2.2 N 9 11 5 6 1005.7 1005.3 0.0
15/07:30pm 14.9 13.2 9.9 72 2.6 N 9 13 5 7 1005.6 1005.2 0.0
15/07:00pm 16.1 14.3 9.5 65 3.5 N 9 11 5 6 1005.4 1005.0 0.0
15/06:30pm 17.1 14.3 8.5 57 4.5 N 13 19 7 10 1005.6 1005.2 0.0
15/06:00pm 18.3 15.0 8.0 51 5.4 NNW 15 20 8 11 1005.5 1005.1 0.0
15/05:30pm 19.0 15.8 8.6 51 5.5 NNW 15 22 8 12 1005.6 1005.2 0.0
15/05:00pm 19.7 15.7 8.4 48 6.0 NNW 19 24 10 13 1005.7 1005.3 0.0

Other Formats:

Comma delimited format used in spreadsheet applications
http://www.bom.gov.au/fwo/IDT60801/IDT60801.94955.axf

JavaScript Object Notation format (JSON) in row-major order
http://www.bom.gov.au/fwo/IDT60801/IDT60801.94955.json